Time;durP1;ratioP1;P1;durP2;ratioP2;P2;SDS_P1;SDS_P2;PMS_P1;PMS_P2;Temp;Humidity;BMP_temperature;BMP_pressure;BME280_temperature;BME280_humidity;BME280_pressure;Samples;Min_cycle;Max_cycle;Signal;HPM_P1;HPM_P2
2021/12/12 00:00:57;;;;;;;5.47;4.93;;;3.30;15.90;;;;;;5010952;28;20204;-76
2021/12/12 00:03:38;;;;;;;5.30;4.60;;;3.20;1.00;;;;;;5011523;28;20172;-75
2021/12/12 00:06:09;;;;;;;5.47;4.97;;;3.20;1.00;;;;;;5011469;28;20645;-75
2021/12/12 00:08:35;;;;;;;5.93;4.80;;;3.20;40.10;;;;;;5011602;28;20723;-75
2021/12/12 00:11:07;;;;;;;6.43;5.27;;;3.20;38.80;;;;;;5012499;28;20220;-76
2021/12/12 00:13:41;;;;;;;6.07;4.50;;;3.10;51.60;;;;;;5015447;28;20181;-75
2021/12/12 00:16:07;;;;;;;5.70;5.10;;;3.20;55.00;;;;;;5015273;28;20229;-76
2021/12/12 00:18:33;;;;;;;5.60;4.97;;;3.20;87.70;;;;;;5015645;28;20200;-77
2021/12/12 00:20:59;;;;;;;6.27;5.07;;;3.10;87.70;;;;;;5014861;28;20192;-76
2021/12/12 00:23:25;;;;;;;6.93;5.30;;;3.10;99.90;;;;;;5015256;28;20177;-76
2021/12/12 00:25:53;;;;;;;6.37;5.60;;;3.10;99.90;;;;;;5015223;28;20180;-76
2021/12/12 00:28:21;;;;;;;6.03;5.27;;;3.10;99.90;;;;;;5014809;28;20291;-76
2021/12/12 00:30:50;;;;;;;7.30;5.20;;;3.10;99.90;;;;;;5014685;28;20254;-75
2021/12/12 00:33:17;;;;;;;8.13;5.30;;;3.10;99.90;;;;;;5015055;28;20231;-76
2021/12/12 00:35:43;;;;;;;5.90;4.90;;;3.20;99.90;;;;;;5015252;28;20369;-77
2021/12/12 00:38:13;;;;;;;5.80;5.20;;;3.20;71.30;;;;;;5015047;28;20642;-77
2021/12/12 00:40:43;;;;;;;6.23;5.57;;;3.20;64.50;;;;;;5014312;28;20649;-77
2021/12/12 00:43:37;;;;;;;5.73;5.13;;;3.20;78.50;;;;;;5014690;28;20635;-76
2021/12/12 00:46:06;;;;;;;6.93;5.43;;;3.20;74.00;;;;;;5012230;28;20723;-77
2021/12/12 00:48:34;;;;;;;6.00;5.40;;;3.20;35.40;;;;;;5014751;28;20281;-77
2021/12/12 00:51:03;;;;;;;6.30;5.33;;;3.10;63.00;;;;;;5014058;28;20202;-77
2021/12/12 00:53:29;;;;;;;5.43;4.80;;;3.10;74.30;;;;;;5014577;28;20519;-77
2021/12/12 00:55:56;;;;;;;7.23;5.10;;;3.10;80.00;;;;;;5014960;28;20211;-77
2021/12/12 00:58:23;;;;;;;4.67;4.17;;;3.20;92.80;;;;;;5014712;28;20176;-78
2021/12/12 01:01:04;;;;;;;6.03;5.37;;;3.00;99.90;;;;;;5013930;28;20690;-77
2021/12/12 01:03:34;;;;;;;5.50;4.70;;;3.10;99.90;;;;;;5014452;28;20208;-77
2021/12/12 01:06:01;;;;;;;5.70;5.10;;;3.00;99.90;;;;;;5014301;28;20185;-77
2021/12/12 01:08:29;;;;;;;6.27;5.37;;;3.00;99.90;;;;;;5014377;28;20258;-77
2021/12/12 01:11:00;;;;;;;6.73;5.50;;;3.10;97.60;;;;;;5013685;28;20543;-76
2021/12/12 01:13:26;;;;;;;6.23;5.57;;;3.10;99.90;;;;;;5014289;28;20287;-76
2021/12/12 01:16:22;;;;;;;6.40;5.07;;;3.00;99.90;;;;;;5014248;28;20265;-77
2021/12/12 01:18:54;;;;;;;7.23;4.87;;;3.00;99.90;;;;;;5014411;28;20235;-76
2021/12/12 01:21:25;;;;;;;6.73;5.13;;;3.00;99.90;;;;;;5013385;28;20216;-76
2021/12/12 01:23:59;;;;;;;7.20;5.47;;;3.00;99.90;;;;;;5013271;28;20173;-76
2021/12/12 01:26:28;;;;;;;7.10;5.60;;;3.00;99.90;;;;;;5013885;28;20537;-76
2021/12/12 01:28:55;;;;;;;5.90;4.93;;;3.00;99.90;;;;;;5013816;28;20216;-75
2021/12/12 01:31:25;;;;;;;9.37;5.83;;;3.10;99.90;;;;;;5013529;28;20246;-76
2021/12/12 01:34:09;;;;;;;7.53;5.03;;;3.10;99.90;;;;;;5013943;28;20625;-76
2021/12/12 01:36:47;;;;;;;6.47;5.00;;;3.00;84.80;;;;;;5013680;28;20637;-76
2021/12/12 01:39:16;;;;;;;7.20;5.27;;;3.10;67.10;;;;;;5013310;28;20208;-76
2021/12/12 01:41:54;;;;;;;6.93;5.07;;;3.00;47.00;;;;;;5013672;28;20188;-76
2021/12/12 01:44:25;;;;;;;6.07;5.40;;;3.00;75.80;;;;;;5013627;28;20191;-76
2021/12/12 01:47:18;;;;;;;10.63;4.80;;;3.00;71.70;;;;;;5013544;28;20714;-76
2021/12/12 01:49:46;;;;;;;6.53;5.03;;;3.00;99.90;;;;;;5012897;28;20223;-76
2021/12/12 01:52:15;;;;;;;6.27;5.43;;;3.00;99.90;;;;;;5013529;28;20592;-76
2021/12/12 01:54:45;;;;;;;7.57;5.13;;;3.00;99.90;;;;;;5013355;28;20183;-76
2021/12/12 01:57:22;;;;;;;7.03;5.60;;;3.00;99.90;;;;;;5013634;28;20242;-77
2021/12/12 01:59:49;;;;;;;6.80;5.90;;;2.90;85.40;;;;;;5013122;28;20208;-77
2021/12/12 02:02:24;;;;;;;7.37;5.97;;;3.40;95.10;;;;;;5013440;28;20215;-78
2021/12/12 02:05:11;;;;;;;7.47;5.57;;;3.00;93.90;;;;;;5016913;28;20188;-76
2021/12/12 02:07:40;;;;;;;6.67;5.33;;;3.00;85.30;;;;;;5018475;28;20216;-76
2021/12/12 02:10:18;;;;;;;8.07;5.67;;;3.00;96.50;;;;;;5018737;28;20220;-75
2021/12/12 02:12:45;;;;;;;7.57;5.53;;;3.00;87.30;;;;;;5019294;28;20180;-76
2021/12/12 02:15:12;;;;;;;7.60;5.87;;;2.90;92.20;;;;;;5014480;28;20226;-77
2021/12/12 02:17:43;;;;;;;8.43;6.60;;;3.00;99.90;;;;;;5013158;28;20184;-78
2021/12/12 02:20:23;;;;;;;8.93;6.13;;;2.90;99.90;;;;;;5012755;28;20291;-77
2021/12/12 02:36:27;;;;;;;7.27;5.87;;;2.90;68.80;;;;;;5013065;28;20210;-77
2021/12/12 02:38:54;;;;;;;6.77;6.07;;;2.90;99.90;;;;;;5012781;28;20180;-76
2021/12/12 02:41:23;;;;;;;6.47;5.83;;;2.90;99.90;;;;;;5012075;28;20204;-77
2021/12/12 02:43:56;;;;;;;8.10;5.80;;;2.90;99.90;;;;;;5012423;28;20224;-78
2021/12/12 02:46:29;;;;;;;7.17;5.83;;;2.90;99.90;;;;;;5013140;28;20188;-78
2021/12/12 02:49:05;;;;;;;7.30;5.50;;;2.90;64.60;;;;;;5012869;28;20212;-78
2021/12/12 02:51:32;;;;;;;7.40;6.07;;;2.90;95.30;;;;;;5017609;28;20192;-76
2021/12/12 02:53:59;;;;;;;8.40;5.80;;;2.90;80.30;;;;;;5019464;28;20672;-77
2021/12/12 02:56:33;;;;;;;6.93;5.40;;;2.80;48.80;;;;;;5018313;28;20172;-76
2021/12/12 02:59:00;;;;;;;6.93;5.40;;;3.00;24.60;;;;;;5017838;28;20456;-76
2021/12/12 03:01:37;;;;;;;6.63;4.50;;;3.00;1.00;;;;;;5012291;28;20196;-77
2021/12/12 03:04:04;;;;;;;6.47;4.60;;;3.00;1.00;;;;;;5012334;28;20180;-76
2021/12/12 03:06:33;;;;;;;6.47;4.80;;;3.00;1.00;;;;;;5012148;28;20176;-76
2021/12/12 03:09:07;;;;;;;7.23;5.00;;;3.00;1.00;;;;;;5011984;28;20196;-76
2021/12/12 03:11:33;;;;;;;7.30;5.07;;;3.00;1.00;;;;;;5011505;28;20203;-76
2021/12/12 03:13:59;;;;;;;8.03;4.87;;;3.10;1.00;;;;;;5012080;28;20181;-77
2021/12/12 03:16:26;;;;;;;8.10;4.90;;;2.90;1.00;;;;;;5012469;28;20637;-76
2021/12/12 03:18:52;;;;;;;8.57;5.13;;;2.90;99.90;;;;;;5011943;28;20188;-76
2021/12/12 03:21:32;;;;;;;7.77;4.93;;;3.00;1.00;;;;;;5011508;28;20203;-76
2021/12/12 03:24:05;;;;;;;5.97;4.83;;;2.90;1.00;;;;;;5012263;28;20176;-77
2021/12/12 03:26:32;;;;;;;8.23;5.80;;;3.00;1.00;;;;;;5012459;28;20259;-77
2021/12/12 03:28:59;;;;;;;7.93;5.47;;;3.00;1.00;;;;;;5012242;28;20249;-77
2021/12/12 03:31:35;;;;;;;8.77;6.17;;;3.00;1.00;;;;;;5011657;28;20208;-76
2021/12/12 03:34:04;;;;;;;11.10;5.93;;;2.90;1.00;;;;;;5011906;28;20191;-77
2021/12/12 03:36:30;;;;;;;11.70;6.03;;;2.90;1.00;;;;;;5011984;28;20192;-77
2021/12/12 03:39:01;;;;;;;6.73;5.53;;;2.90;1.00;;;;;;5012089;28;20176;-77
2021/12/12 03:41:32;;;;;;;7.60;6.07;;;2.90;1.00;;;;;;4993718;28;20205;-77
2021/12/12 03:44:02;;;;;;;7.27;5.20;;;2.90;1.00;;;;;;5061311;22;20282;-76
2021/12/12 03:46:28;;;;;;;9.73;6.20;;;2.90;1.00;;;;;;5052400;28;20714;-76
2021/12/12 03:48:55;;;;;;;8.33;5.80;;;2.80;1.00;;;;;;5052775;28;20219;-76
2021/12/12 03:51:24;;;;;;;7.20;5.43;;;2.70;1.00;;;;;;5052391;28;20272;-76
2021/12/12 03:53:50;;;;;;;8.13;5.80;;;2.80;1.00;;;;;;5052928;28;20548;-76
2021/12/12 03:56:16;;;;;;;7.37;5.70;;;2.70;1.00;;;;;;5052645;28;20175;-76
2021/12/12 03:58:44;;;;;;;8.70;6.07;;;2.70;1.00;;;;;;5052802;28;20261;-76
2021/12/12 04:01:17;;;;;;;9.57;5.83;;;2.70;1.00;;;;;;5050918;28;20191;-75
2021/12/12 04:03:44;;;;;;;8.17;5.93;;;2.60;1.00;;;;;;5051440;28;20588;-74
2021/12/12 04:06:13;;;;;;;8.60;6.13;;;2.60;1.00;;;;;;5051613;28;20175;-74
2021/12/12 04:08:42;;;;;;;10.50;5.80;;;2.60;1.00;;;;;;5051425;28;20207;-75
2021/12/12 04:11:20;;;;;;;8.93;5.50;;;2.60;1.00;;;;;;5050821;28;20245;-75
2021/12/12 04:13:49;;;;;;;7.53;5.43;;;2.60;1.00;;;;;;5051646;28;20186;-75
2021/12/12 04:16:14;;;;;;;8.77;5.67;;;2.50;1.00;;;;;;5051163;28;20241;-74
2021/12/12 04:18:40;;;;;;;7.70;6.10;;;2.50;1.00;;;;;;5051321;28;20562;-75
2021/12/12 04:21:06;;;;;;;9.40;6.33;;;2.50;1.00;;;;;;5050816;28;20607;-75
2021/12/12 04:23:32;;;;;;;7.67;5.90;;;2.40;1.00;;;;;;5051240;28;20190;-75
2021/12/12 04:26:15;;;;;;;7.17;5.60;;;2.50;1.00;;;;;;5051107;28;20175;-75
2021/12/12 04:28:41;;;;;;;8.37;6.73;;;2.20;1.00;;;;;;5051180;28;20256;-75
2021/12/12 04:31:07;;;;;;;7.50;5.33;;;2.10;1.00;;;;;;5050752;28;20203;-75
2021/12/12 04:33:32;;;;;;;7.03;5.97;;;2.00;1.00;;;;;;5051258;28;20175;-75
2021/12/12 04:35:58;;;;;;;7.20;5.83;;;2.00;1.00;;;;;;5051193;28;20179;-75
2021/12/12 04:38:24;;;;;;;6.37;5.60;;;1.90;1.00;;;;;;5051240;28;20691;-75
2021/12/12 04:40:50;;;;;;;9.03;6.97;;;1.90;15.90;;;;;;5050708;28;20199;-75
2021/12/12 04:43:15;;;;;;;8.20;5.83;;;1.90;49.60;;;;;;5051279;28;20179;-75
2021/12/12 04:46:03;;;;;;;7.57;5.80;;;1.90;67.70;;;;;;5050790;28;20187;-75
2021/12/12 04:51:29;;;;;;;7.33;5.50;;;1.70;79.70;;;;;;5050539;28;20219;-75
2021/12/12 04:54:02;;;;;;;11.43;6.20;;;1.70;93.30;;;;;;5051077;28;20180;-75
2021/12/12 04:57:00;;;;;;;11.57;6.93;;;1.50;99.90;;;;;;5051265;28;20186;-75
2021/12/12 04:59:28;;;;;;;9.40;5.80;;;1.50;99.90;;;;;;5054069;28;20498;-75
2021/12/12 05:02:15;;;;;;;6.80;5.33;;;1.40;99.90;;;;;;5054509;28;20597;-75
2021/12/12 05:04:58;;;;;;;7.73;5.53;;;1.30;99.90;;;;;;5054628;28;20182;-75
2021/12/12 05:07:31;;;;;;;7.20;5.30;;;1.20;99.90;;;;;;5054449;28;20262;-75
2021/12/12 05:10:02;;;;;;;6.73;5.63;;;1.10;99.90;;;;;;5054127;28;20210;-74
2021/12/12 05:12:30;;;;;;;6.23;5.33;;;1.10;99.90;;;;;;5054325;28;20186;-75
2021/12/12 05:15:00;;;;;;;8.13;5.20;;;1.10;99.90;;;;;;5054295;28;20187;-74
2021/12/12 05:17:38;;;;;;;6.10;5.10;;;1.10;99.90;;;;;;5054295;28;20179;-74
2021/12/12 05:20:09;;;;;;;7.57;5.80;;;1.00;94.90;;;;;;5053806;28;20558;-75
2021/12/12 05:22:45;;;;;;;6.10;5.17;;;0.80;99.20;;;;;;5054252;28;20192;-75
2021/12/12 05:25:19;;;;;;;7.93;5.73;;;0.70;99.90;;;;;;5054476;28;20632;-75
2021/12/12 05:27:48;;;;;;;6.73;5.43;;;0.70;99.90;;;;;;5056348;28;20210;-74
2021/12/12 05:30:18;;;;;;;7.43;5.63;;;0.50;99.90;;;;;;5069375;28;20206;-75
2021/12/12 05:32:46;;;;;;;7.87;5.67;;;0.50;99.90;;;;;;5068483;28;20175;-74
2021/12/12 05:35:15;;;;;;;5.70;4.83;;;0.50;99.90;;;;;;5057933;28;20205;-75
2021/12/12 05:37:42;;;;;;;7.50;5.33;;;0.40;99.90;;;;;;5053911;28;20190;-74
2021/12/12 05:40:10;;;;;;;7.53;5.90;;;0.30;99.90;;;;;;5053548;28;20374;-74
2021/12/12 05:42:37;;;;;;;10.60;5.70;;;0.30;99.90;;;;;;5053725;28;20179;-75
2021/12/12 05:45:08;;;;;;;7.20;5.30;;;0.20;99.90;;;;;;5053356;28;20652;-74
2021/12/12 05:47:34;;;;;;;6.87;5.50;;;0.20;99.90;;;;;;5053603;28;20186;-75
2021/12/12 05:50:00;;;;;;;17.13;7.47;;;0.10;99.90;;;;;;5053141;28;20211;-74
2021/12/12 05:52:27;;;;;;;28.77;12.87;;;0.10;99.90;;;;;;5053622;28;20811;-75
2021/12/12 05:54:53;;;;;;;24.53;13.20;;;0.00;99.90;;;;;;5053666;28;20183;-75
2021/12/12 05:57:24;;;;;;;34.83;18.30;;;0.00;99.90;;;;;;5053254;28;20588;-75
2021/12/12 05:59:51;;;;;;;22.47;14.50;;;-0.10;99.90;;;;;;5052867;28;20198;-75
2021/12/12 06:02:17;;;;;;;17.57;9.90;;;-0.10;99.90;;;;;;5053605;28;20171;-74
2021/12/12 06:04:43;;;;;;;14.47;8.30;;;-0.20;99.90;;;;;;5053675;28;20185;-74
2021/12/12 06:07:14;;;;;;;11.67;7.43;;;-0.10;99.90;;;;;;5054105;28;20491;-74
2021/12/12 06:09:39;;;;;;;10.63;8.30;;;-0.20;99.90;;;;;;5053478;28;20695;-75
2021/12/12 06:12:07;;;;;;;9.93;6.87;;;-0.20;99.90;;;;;;5053680;28;20269;-75
2021/12/12 06:14:34;;;;;;;9.97;6.80;;;-0.20;99.90;;;;;;5053244;28;20258;-74
2021/12/12 06:17:01;;;;;;;10.60;7.63;;;-0.20;99.90;;;;;;5053364;28;20180;-75
2021/12/12 06:19:31;;;;;;;8.17;6.33;;;-0.20;99.90;;;;;;5052801;28;20175;-75
2021/12/12 06:21:58;;;;;;;9.47;6.60;;;-0.30;99.90;;;;;;5052941;28;20237;-75
2021/12/12 06:24:27;;;;;;;9.00;6.50;;;-0.30;99.90;;;;;;5052891;28;20210;-75
2021/12/12 06:26:55;;;;;;;10.80;6.67;;;-0.30;99.90;;;;;;5053354;28;20171;-75
2021/12/12 06:29:21;;;;;;;7.57;6.10;;;-0.30;99.90;;;;;;5052435;28;20215;-76
2021/12/12 06:31:50;;;;;;;7.90;6.20;;;-0.40;99.90;;;;;;5052928;28;20560;-74
2021/12/12 06:34:17;;;;;;;7.17;5.90;;;-0.30;99.90;;;;;;5052700;28;20187;-74
2021/12/12 06:36:43;;;;;;;9.90;5.70;;;-0.30;99.90;;;;;;5034882;28;20233;-74
2021/12/12 06:39:11;;;;;;;7.47;5.90;;;-0.30;99.90;;;;;;5052360;28;20175;-74
2021/12/12 06:41:37;;;;;;;8.40;6.93;;;-0.40;99.90;;;;;;5052502;28;20694;-75
2021/12/12 06:44:06;;;;;;;10.47;6.13;;;-0.40;99.90;;;;;;5052549;28;20187;-74
2021/12/12 06:46:33;;;;;;;10.90;6.50;;;-0.50;99.90;;;;;;5052431;28;20175;-74
2021/12/12 06:48:59;;;;;;;9.93;6.10;;;-0.50;99.90;;;;;;5052459;28;20211;-75
2021/12/12 06:51:27;;;;;;;10.03;6.23;;;-0.50;99.90;;;;;;5051852;28;20578;-75
2021/12/12 06:53:53;;;;;;;8.60;6.00;;;-0.40;99.90;;;;;;5052395;28;20183;-75
2021/12/12 06:56:20;;;;;;;8.47;5.50;;;-0.50;99.90;;;;;;5052489;28;20175;-74
2021/12/12 06:58:48;;;;;;;7.67;5.17;;;-0.60;99.90;;;;;;5052389;28;20600;-75
2021/12/12 07:01:18;;;;;;;8.63;5.70;;;-0.60;99.90;;;;;;5051958;28;20501;-75
2021/12/12 07:03:45;;;;;;;7.07;5.73;;;-0.70;99.90;;;;;;5052360;28;20171;-75
2021/12/12 07:06:16;;;;;;;7.87;5.90;;;-0.70;99.90;;;;;;5052037;28;20584;-75
2021/12/12 07:08:41;;;;;;;9.20;5.90;;;-0.70;99.90;;;;;;5052163;28;20292;-75
2021/12/12 07:11:07;;;;;;;6.33;5.70;;;-0.60;99.90;;;;;;5051735;28;20298;-75
2021/12/12 07:13:33;;;;;;;7.20;5.97;;;-0.60;99.90;;;;;;5052114;28;20673;-75
2021/12/12 07:16:01;;;;;;;7.27;5.77;;;-0.60;99.90;;;;;;5051974;28;20222;-75
2021/12/12 07:18:30;;;;;;;7.93;5.60;;;-0.60;99.90;;;;;;5051926;28;20227;-75
2021/12/12 07:20:59;;;;;;;6.67;5.47;;;-0.50;99.90;;;;;;5050691;28;20407;-75
2021/12/12 07:23:26;;;;;;;7.37;5.83;;;-0.60;99.90;;;;;;5052056;28;20250;-75
2021/12/12 07:25:53;;;;;;;7.00;6.00;;;-0.40;99.90;;;;;;5052025;28;20177;-75
2021/12/12 07:28:19;;;;;;;7.07;5.57;;;-0.10;99.90;;;;;;5051454;28;20252;-75
2021/12/12 07:30:45;;;;;;;7.57;5.73;;;-0.10;99.90;;;;;;5051276;28;20603;-75
2021/12/12 07:33:12;;;;;;;6.97;5.40;;;0.00;99.90;;;;;;5051686;28;20181;-74
2021/12/12 07:35:42;;;;;;;8.73;5.47;;;1.10;99.90;;;;;;5051551;28;20178;-75
2021/12/12 07:38:10;;;;;;;6.10;4.87;;;2.10;1.00;;;;;;5051843;28;20218;-75
2021/12/12 07:40:37;;;;;;;5.67;5.07;;;2.20;99.90;;;;;;5051135;28;20288;-75
2021/12/12 07:43:05;;;;;;;6.57;4.83;;;2.40;9.80;;;;;;5051651;28;20179;-75
2021/12/12 07:45:31;;;;;;;5.00;4.50;;;2.80;99.90;;;;;;5049937;28;20213;-72
2021/12/12 07:47:57;;;;;;;7.20;4.30;;;3.60;1.00;;;;;;5062357;28;20421;-72
2021/12/12 07:50:25;;;;;;;5.10;4.13;;;4.30;99.90;;;;;;5062082;28;20202;-72
2021/12/12 07:52:52;;;;;;;5.93;4.53;;;5.20;1.00;;;;;;5058219;28;20182;-71
2021/12/12 07:55:18;;;;;;;7.87;4.27;;;5.80;99.90;;;;;;5061014;28;20185;-72
2021/12/12 07:57:44;;;;;;;6.87;3.97;;;6.30;99.90;;;;;;5059848;28;20186;-72
2021/12/12 08:00:15;;;;;;;6.10;4.83;;;6.70;1.00;;;;;;5060866;28;20576;-72
2021/12/12 08:02:42;;;;;;;4.60;4.10;;;6.80;1.00;;;;;;5056229;28;20265;-72
2021/12/12 08:05:09;;;;;;;15.03;13.63;;;7.20;1.00;;;;;;5051587;28;20286;-72
2021/12/12 08:07:36;;;;;;;16.43;14.70;;;7.00;1.00;;;;;;5058028;28;20183;-72
2021/12/12 08:10:05;;;;;;;17.23;15.43;;;7.30;1.00;;;;;;5057090;28;20202;-70
2021/12/12 08:12:31;;;;;;;14.00;12.57;;;7.40;1.00;;;;;;5056830;28;20190;-72
2021/12/12 08:14:57;;;;;;;5.27;4.77;;;7.50;1.00;;;;;;5053193;28;20187;-73
2021/12/12 08:17:25;;;;;;;6.00;4.07;;;7.70;1.00;;;;;;5050947;28;20198;-73
2021/12/12 08:19:55;;;;;;;4.80;3.73;;;7.80;1.00;;;;;;5050790;28;20278;-73
2021/12/12 08:22:21;;;;;;;4.87;3.90;;;8.40;1.00;;;;;;5051152;28;20297;-73
2021/12/12 08:24:47;;;;;;;4.60;4.20;;;8.30;1.00;;;;;;5053386;28;20202;-73
2021/12/12 08:27:13;;;;;;;6.07;5.57;;;8.80;1.00;;;;;;5057874;28;20185;-73
2021/12/12 08:29:39;;;;;;;6.33;3.60;;;8.60;1.00;;;;;;5059867;28;20659;-74
2021/12/12 08:32:07;;;;;;;4.43;3.50;;;9.10;1.00;;;;;;5065552;28;20186;-73
2021/12/12 08:34:33;;;;;;;4.73;3.70;;;9.10;1.00;;;;;;5063519;28;20178;-74
2021/12/12 08:36:59;;;;;;;5.93;4.00;;;8.90;1.00;;;;;;5067613;28;20181;-74
2021/12/12 08:39:27;;;;;;;6.43;4.20;;;9.00;1.00;;;;;;5065173;28;20182;-72
2021/12/12 08:41:56;;;;;;;5.90;3.83;;;7.40;1.00;;;;;;5065733;28;20272;-70
2021/12/12 08:44:22;;;;;;;4.73;4.23;;;6.30;1.00;;;;;;5073911;28;20194;-71
2021/12/12 08:46:52;;;;;;;4.70;4.30;;;5.30;99.90;;;;;;5073299;28;20167;-70
2021/12/12 08:49:20;;;;;;;5.70;4.37;;;4.80;1.00;;;;;;5063901;28;20313;-71
2021/12/12 08:51:51;;;;;;;6.97;5.33;;;4.60;1.00;;;;;;5074230;28;20697;-71
2021/12/12 08:54:30;;;;;;;5.30;4.80;;;4.00;1.00;;;;;;5070180;28;20257;-73
2021/12/12 08:57:12;;;;;;;8.43;4.77;;;4.00;1.00;;;;;;5061726;28;20305;-73
2021/12/12 08:59:43;;;;;;;5.83;4.60;;;3.70;10.50;;;;;;5058926;28;20703;-73
2021/12/12 09:02:12;;;;;;;5.60;4.40;;;3.60;1.00;;;;;;5061268;28;20174;-73
2021/12/12 09:04:55;;;;;;;4.80;4.27;;;3.40;1.00;;;;;;5062971;28;20563;-73
2021/12/12 09:07:28;;;;;;;5.13;4.63;;;3.20;99.90;;;;;;5064495;28;20182;-75
2021/12/12 09:10:07;;;;;;;4.93;4.43;;;3.30;99.90;;;;;;5060821;28;20215;-74
2021/12/12 09:13:06;;;;;;;5.63;4.47;;;3.30;1.00;;;;;;5062023;28;20214;-74
2021/12/12 09:15:37;;;;;;;6.90;4.80;;;3.30;99.90;;;;;;5046144;28;20253;-74
2021/12/12 09:18:20;;;;;;;6.10;4.93;;;3.30;13.20;;;;;;5046751;28;20235;-75
2021/12/12 09:20:53;;;;;;;7.07;4.83;;;3.40;99.90;;;;;;5059529;28;20201;-75
2021/12/12 09:23:29;;;;;;;8.63;5.50;;;3.30;99.90;;;;;;5048429;28;20201;-75
2021/12/12 09:26:04;;;;;;;5.27;4.77;;;3.20;1.00;;;;;;5053145;28;20182;-75
2021/12/12 09:28:44;;;;;;;5.17;4.07;;;3.50;99.90;;;;;;5060637;28;20219;-75
2021/12/12 09:31:24;;;;;;;6.43;4.03;;;3.50;1.00;;;;;;5052738;28;20256;-74
2021/12/12 09:33:57;;;;;;;5.53;4.20;;;3.40;99.90;;;;;;5066203;28;20657;-74
2021/12/12 09:36:37;;;;;;;4.60;4.20;;;3.60;99.90;;;;;;5063037;28;20199;-73
2021/12/12 09:39:17;;;;;;;6.60;4.40;;;3.50;99.90;;;;;;5068058;28;20182;-73
2021/12/12 09:42:20;;;;;;;4.60;3.77;;;3.50;1.00;;;;;;5072368;28;20190;-73
2021/12/12 09:45:08;;;;;;;4.70;4.20;;;3.40;1.00;;;;;;5066556;28;20212;-74
2021/12/12 09:48:13;;;;;;;4.40;3.70;;;3.60;99.90;;;;;;5073604;28;20170;-72
2021/12/12 09:51:15;;;;;;;5.17;4.30;;;3.60;1.00;;;;;;5058374;28;20297;-74
2021/12/12 09:54:03;;;;;;;6.10;3.87;;;3.80;1.00;;;;;;5053803;28;20179;-74
2021/12/12 09:56:37;;;;;;;4.60;3.70;;;3.80;1.00;;;;;;5053597;28;20179;-75
2021/12/12 09:59:21;;;;;;;5.33;4.07;;;3.80;1.00;;;;;;5053256;28;20175;-74
2021/12/12 10:01:51;;;;;;;4.85;4.35;;;4.20;1.00;;;;;;5060124;28;20594;-74
2021/12/12 10:05:00;;;;;;;5.93;3.90;;;4.60;99.90;;;;;;5039661;28;20172;-73
2021/12/12 10:07:47;;;;;;;5.70;3.93;;;4.50;1.00;;;;;;5028193;28;20198;-74
2021/12/12 10:10:21;;;;;;;5.37;4.40;;;4.50;99.90;;;;;;5061853;28;20261;-74
2021/12/12 10:12:59;;;;;;;5.35;4.03;;;4.70;3.80;;;;;;5052920;28;20473;-74
2021/12/12 10:15:27;;;;;;;4.93;4.40;;;4.70;1.00;;;;;;5052753;28;20186;-73
2021/12/12 10:18:21;;;;;;;11.53;8.67;;;4.60;1.00;;;;;;5051216;28;20178;-73
2021/12/12 10:21:01;;;;;;;60.43;30.97;;;4.30;99.90;;;;;;5052377;28;20195;-74
2021/12/12 10:23:47;;;;;;;30.77;21.87;;;4.00;1.00;;;;;;5034901;28;20175;-73
2021/12/12 10:26:33;;;;;;;13.97;12.57;;;4.20;99.90;;;;;;5052690;28;20186;-74
2021/12/12 10:29:06;;;;;;;5.93;4.10;;;4.30;99.90;;;;;;5052773;28;20214;-74
2021/12/12 10:31:52;;;;;;;5.00;3.90;;;4.20;99.90;;;;;;5052439;28;20191;-74
2021/12/12 10:34:23;;;;;;;4.53;3.60;;;4.40;1.00;;;;;;5052597;28;20201;-74
2021/12/12 10:37:13;;;;;;;5.13;3.93;;;4.30;1.00;;;;;;5052457;28;20175;-75
2021/12/12 10:39:49;;;;;;;9.43;7.33;;;4.50;1.00;;;;;;5054258;28;20167;-74
2021/12/12 10:42:27;;;;;;;10.37;6.83;;;4.50;99.90;;;;;;5053096;28;20349;-74
2021/12/12 10:44:58;;;;;;;8.10;4.73;;;4.40;54.50;;;;;;5052267;28;20612;-74
2021/12/12 10:47:32;;;;;;;3.50;3.20;;;4.50;1.00;;;;;;5051978;28;20183;-74
2021/12/12 10:50:13;;;;;;;6.23;3.73;;;4.50;1.00;;;;;;5052854;28;20228;-74
2021/12/12 10:52:39;;;;;;;10.70;4.47;;;4.60;1.00;;;;;;5052268;28;20244;-74
2021/12/12 10:55:17;;;;;;;6.80;3.70;;;4.60;1.00;;;;;;5051422;28;20171;-74
2021/12/12 10:57:52;;;;;;;3.97;3.40;;;4.50;1.00;;;;;;5052309;28;20179;-74
2021/12/12 11:00:23;;;;;;;4.83;3.50;;;4.30;1.00;;;;;;5051742;28;20277;-74
2021/12/12 11:03:35;;;;;;;5.20;3.70;;;4.40;1.00;;;;;;5052115;28;20179;-75
2021/12/12 11:06:09;;;;;;;5.10;3.60;;;4.50;1.00;;;;;;5034778;28;20183;-74
2021/12/12 11:08:57;;;;;;;3.40;3.10;;;4.60;1.00;;;;;;5052468;28;20210;-75
2021/12/12 11:11:27;;;;;;;7.20;3.40;;;4.70;99.90;;;;;;5051453;28;20218;-75
2021/12/12 11:14:09;;;;;;;5.60;3.10;;;4.70;99.90;;;;;;5051959;28;20622;-75
2021/12/12 11:16:42;;;;;;;5.63;3.17;;;4.80;99.90;;;;;;5051809;28;20636;-75
2021/12/12 11:19:15;;;;;;;5.43;3.50;;;5.00;1.00;;;;;;5051791;28;20254;-75
2021/12/12 11:21:46;;;;;;;3.93;2.90;;;4.90;1.00;;;;;;5051674;28;20199;-75
2021/12/12 11:24:19;;;;;;;7.70;3.17;;;5.00;1.00;;;;;;5051924;28;20183;-75
2021/12/12 11:26:56;;;;;;;4.77;3.10;;;5.30;1.00;;;;;;5051942;28;20201;-74
2021/12/12 11:29:30;;;;;;;6.77;3.20;;;5.10;99.90;;;;;;5050969;28;20215;-75
2021/12/12 11:32:01;;;;;;;11.23;6.20;;;5.20;99.90;;;;;;5051507;28;20577;-75
2021/12/12 11:34:27;;;;;;;11.90;6.37;;;5.10;99.90;;;;;;5051467;28;20225;-75
2021/12/12 11:37:15;;;;;;;4.00;3.53;;;5.20;99.90;;;;;;5034109;28;20195;-76
2021/12/12 11:39:53;;;;;;;3.50;3.10;;;5.30;99.90;;;;;;5036303;28;20171;-75
2021/12/12 11:42:49;;;;;;;4.13;3.47;;;5.40;99.90;;;;;;5031281;28;20167;-74
2021/12/12 11:45:22;;;;;;;4.47;3.87;;;5.60;99.90;;;;;;5034704;28;20333;-75
2021/12/12 11:48:10;;;;;;;5.40;2.90;;;5.80;99.90;;;;;;5051332;28;20710;-74
2021/12/12 11:50:48;;;;;;;3.37;2.57;;;6.20;99.90;;;;;;5050975;28;20207;-75
2021/12/12 11:53:19;;;;;;;4.10;2.53;;;6.10;7.90;;;;;;5051214;28;20285;-74
2021/12/12 11:55:58;;;;;;;3.57;2.83;;;6.00;8.30;;;;;;5054014;28;20261;-75
2021/12/12 11:58:30;;;;;;;3.33;2.43;;;5.80;1.00;;;;;;5046862;28;20185;-75
2021/12/12 12:01:27;;;;;;;2.87;2.57;;;5.80;1.00;;;;;;5044728;28;20207;-75
2021/12/12 12:04:16;;;;;;;2.87;2.40;;;5.70;1.00;;;;;;5046722;28;20548;-74
2021/12/12 12:06:59;;;;;;;5.87;2.60;;;5.80;1.00;;;;;;5032904;28;20172;-75
2021/12/12 12:09:54;;;;;;;7.07;2.90;;;5.70;1.00;;;;;;5034714;28;20273;-74
2021/12/12 12:12:55;;;;;;;9.37;2.57;;;5.80;1.00;;;;;;5060129;28;20316;-74
2021/12/12 12:15:49;;;;;;;3.63;2.40;;;5.80;1.00;;;;;;5015677;28;20248;-75
2021/12/12 12:18:30;;;;;;;4.27;3.30;;;5.80;1.00;;;;;;5070494;28;20225;-74
2021/12/12 12:21:16;;;;;;;4.77;2.70;;;6.30;1.00;;;;;;5071898;28;20190;-73
2021/12/12 12:27:02;;;;;;;7.13;2.70;;;8.80;1.00;;;;;;5074754;28;20178;-74
2021/12/12 12:29:27;;;;;;;3.10;2.77;;;7.50;1.00;;;;;;5034761;28;20210;-74
2021/12/12 12:32:23;;;;;;;3.47;2.27;;;7.20;1.00;;;;;;5074949;28;20182;-74
2021/12/12 12:35:31;;;;;;;2.60;2.40;;;6.50;1.00;;;;;;5034915;28;20179;-74
2021/12/12 12:38:14;;;;;;;6.50;2.93;;;6.40;1.00;;;;;;5034539;28;20592;-74
2021/12/12 12:41:17;;;;;;;3.00;2.63;;;6.30;1.00;;;;;;5034471;28;20207;-74
2021/12/12 12:44:40;;;;;;;7.37;2.73;;;6.20;1.00;;;;;;5062091;28;20392;-74
2021/12/12 12:47:42;;;;;;;3.80;3.10;;;6.10;1.00;;;;;;5073901;28;20182;-74
2021/12/12 12:50:42;;;;;;;4.90;3.83;;;6.00;1.00;;;;;;5060732;28;20210;-74
2021/12/12 12:54:01;;;;;;;2.97;2.53;;;6.00;1.00;;;;;;5054999;28;20860;-74
2021/12/12 12:56:51;;;;;;;3.27;2.97;;;6.10;1.00;;;;;;5055352;28;20689;-75
2021/12/12 12:59:36;;;;;;;3.77;2.80;;;6.20;1.00;;;;;;5054728;28;20270;-76
2021/12/12 13:02:19;;;;;;;3.30;2.50;;;6.40;1.00;;;;;;5062495;28;20183;-77
2021/12/12 13:05:06;;;;;;;4.20;2.63;;;6.80;1.00;;;;;;5077080;28;20541;-76
2021/12/12 13:07:41;;;;;;;2.83;2.43;;;6.80;1.00;;;;;;5074568;28;20182;-74
2021/12/12 13:10:11;;;;;;;3.70;2.60;;;6.80;1.00;;;;;;5073901;28;20220;-74
2021/12/12 13:12:57;;;;;;;3.60;2.43;;;6.70;1.00;;;;;;5074131;28;20179;-74
2021/12/12 13:15:41;;;;;;;3.60;2.93;;;6.70;1.00;;;;;;5073821;28;20179;-74
2021/12/12 13:18:18;;;;;;;9.00;6.70;;;6.60;1.00;;;;;;5073226;28;20284;-74
2021/12/12 13:20:51;;;;;;;8.97;6.20;;;6.60;1.00;;;;;;5073790;28;20205;-74
2021/12/12 13:23:34;;;;;;;7.00;5.80;;;6.50;1.00;;;;;;5072835;28;20186;-75
2021/12/12 13:26:09;;;;;;;3.23;2.57;;;6.40;1.00;;;;;;5074209;28;20198;-75
2021/12/12 13:29:14;;;;;;;4.70;2.93;;;6.40;1.00;;;;;;5073405;28;20210;-75
2021/12/12 13:31:58;;;;;;;6.07;4.83;;;6.60;1.00;;;;;;5066305;28;20552;-76
2021/12/12 13:34:47;;;;;;;8.40;3.77;;;6.60;1.00;;;;;;5070904;28;20175;-75
2021/12/12 13:37:36;;;;;;;3.60;3.23;;;6.70;1.00;;;;;;5073696;28;20205;-76
2021/12/12 13:40:07;;;;;;;6.43;5.83;;;6.50;1.00;;;;;;5072827;28;20202;-76
2021/12/12 13:42:55;;;;;;;2.53;2.30;;;6.50;1.00;;;;;;5074004;28;20174;-76
2021/12/12 13:45:31;;;;;;;5.63;3.87;;;6.30;1.00;;;;;;5073590;28;20190;-75
2021/12/12 13:48:10;;;;;;;3.43;3.13;;;6.30;1.00;;;;;;5067061;28;20179;-75
2021/12/12 13:50:43;;;;;;;9.93;7.77;;;6.20;1.00;;;;;;5053022;28;20536;-75
2021/12/12 13:53:34;;;;;;;4.57;3.83;;;6.20;1.00;;;;;;5053727;28;20178;-75
2021/12/12 13:56:23;;;;;;;7.17;5.50;;;6.20;1.00;;;;;;5053508;28;20175;-75